Time;durP1;ratioP1;P1;durP2;ratioP2;P2;SDS_P1;SDS_P2;PMS_P1;PMS_P2;Temp;Humidity;BMP_temperature;BMP_pressure;BME280_temperature;BME280_humidity;BME280_pressure;Samples;Min_cycle;Max_cycle;Signal;HPM_P1;HPM_P2
2023/12/26 00:02:40;;;;;;;14.80;6.50;;;8.70;61.70;;;;;;7756625;22;20181;-74
2023/12/26 00:05:41;;;;;;;13.90;7.05;;;8.70;61.50;;;;;;7781622;22;20013;-74
2023/12/26 00:08:42;;;;;;;16.67;6.75;;;8.70;61.50;;;;;;7781924;22;20105;-74
2023/12/26 00:11:46;;;;;;;14.50;5.88;;;8.70;61.40;;;;;;7781706;22;20002;-75
2023/12/26 00:14:48;;;;;;;15.05;7.13;;;8.70;61.40;;;;;;7730649;22;20282;-75
2023/12/26 00:17:51;;;;;;;18.75;6.43;;;8.70;61.40;;;;;;7782191;22;20011;-75
2023/12/26 00:20:53;;;;;;;16.63;6.00;;;8.70;61.40;;;;;;7781533;22;20010;-74
2023/12/26 00:23:54;;;;;;;18.40;6.32;;;8.70;61.40;;;;;;7808025;22;20002;-74
2023/12/26 00:26:55;;;;;;;11.48;4.53;;;8.60;61.40;;;;;;7780979;22;20631;-74
2023/12/26 00:29:56;;;;;;;11.57;5.38;;;8.60;61.50;;;;;;7780871;22;20025;-74
2023/12/26 00:32:57;;;;;;;11.75;5.00;;;8.70;61.60;;;;;;7781438;22;20000;-75
2023/12/26 00:35:59;;;;;;;11.07;4.70;;;8.70;61.50;;;;;;7755724;22;20019;-74
2023/12/26 00:39:00;;;;;;;13.80;5.07;;;8.60;61.20;;;;;;7756398;22;20566;-76
2023/12/26 00:42:02;;;;;;;15.13;6.50;;;8.80;61.20;;;;;;7781180;22;20106;-75
2023/12/26 00:45:03;;;;;;;11.43;4.55;;;8.70;61.10;;;;;;7756250;22;20026;-74
2023/12/26 00:48:06;;;;;;;9.95;5.25;;;8.70;61.20;;;;;;7755167;22;20432;-74
2023/12/26 00:51:07;;;;;;;15.18;5.93;;;8.70;61.00;;;;;;7779974;22;20007;-73
2023/12/26 00:54:08;;;;;;;9.70;4.63;;;8.70;60.80;;;;;;7781562;22;20486;-76
2023/12/26 00:57:09;;;;;;;14.57;6.25;;;8.70;60.80;;;;;;7781120;22;20053;-75
2023/12/26 01:00:11;;;;;;;14.15;6.10;;;8.60;60.90;;;;;;7781182;22;20470;-76
2023/12/26 01:03:12;;;;;;;11.65;6.38;;;8.50;61.10;;;;;;7781260;22;20010;-75
2023/12/26 01:06:14;;;;;;;8.48;5.70;;;8.50;61.30;;;;;;7757086;22;20333;-75
2023/12/26 01:09:15;;;;;;;8.18;5.10;;;8.40;61.50;;;;;;7782164;22;20102;-75
2023/12/26 01:12:16;;;;;;;8.23;3.88;;;8.30;61.70;;;;;;7781571;22;20013;-75
2023/12/26 01:15:17;;;;;;;13.73;6.70;;;8.30;61.90;;;;;;7755560;22;20003;-74
2023/12/26 01:18:18;;;;;;;7.57;5.15;;;8.30;62.00;;;;;;7755487;22;20064;-75
2023/12/26 01:21:19;;;;;;;18.73;6.00;;;8.30;62.10;;;;;;7756222;22;20003;-75
2023/12/26 01:24:20;;;;;;;9.10;4.40;;;8.30;62.20;;;;;;7755263;22;20015;-73
2023/12/26 01:27:21;;;;;;;15.18;5.40;;;8.30;62.20;;;;;;7781350;22;20090;-74
2023/12/26 01:30:21;;;;;;;13.73;5.43;;;8.30;62.20;;;;;;7780348;22;19995;-75
2023/12/26 01:33:25;;;;;;;12.57;5.30;;;8.30;62.10;;;;;;7756360;22;20003;-75
2023/12/26 01:36:26;;;;;;;18.95;5.50;;;8.30;62.10;;;;;;7756080;22;20015;-75
2023/12/26 01:39:29;;;;;;;10.30;5.30;;;8.30;62.00;;;;;;7780911;22;19995;-78
2023/12/26 01:42:31;;;;;;;13.13;5.88;;;8.30;62.10;;;;;;7781992;22;20010;-74
2023/12/26 01:45:32;;;;;;;19.27;5.15;;;8.30;62.90;;;;;;7755968;22;20456;-75
2023/12/26 01:48:33;;;;;;;9.35;4.72;;;8.30;62.00;;;;;;7756219;22;19999;-76
2023/12/26 01:51:34;;;;;;;21.85;5.43;;;8.30;61.90;;;;;;7783661;22;20007;-74
2023/12/26 01:54:38;;;;;;;14.68;5.28;;;8.30;61.80;;;;;;7783436;22;19999;-74
2023/12/26 01:57:39;;;;;;;9.85;5.65;;;8.30;61.90;;;;;;7757705;22;20503;-76
2023/12/26 02:00:41;;;;;;;10.98;6.55;;;8.30;61.90;;;;;;7707252;22;20136;-75
2023/12/26 02:03:42;;;;;;;14.50;6.07;;;8.30;62.00;;;;;;7758034;22;20375;-75
2023/12/26 02:06:44;;;;;;;8.80;4.95;;;8.30;62.10;;;;;;7783908;22;20351;-73
2023/12/26 02:09:47;;;;;;;12.18;5.63;;;8.30;62.10;;;;;;7782692;22;20314;-76
2023/12/26 02:12:49;;;;;;;10.68;5.55;;;8.30;62.10;;;;;;7784103;22;20103;-75
2023/12/26 02:15:53;;;;;;;12.50;5.68;;;8.30;62.00;;;;;;7783496;22;20134;-74
2023/12/26 02:18:55;;;;;;;10.13;5.65;;;8.20;62.00;;;;;;7782906;22;20338;-75
2023/12/26 02:21:57;;;;;;;15.70;6.40;;;8.20;62.00;;;;;;7757182;22;20053;-74
2023/12/26 02:24:58;;;;;;;15.63;5.88;;;8.20;62.10;;;;;;7757337;22;20029;-75
2023/12/26 02:28:02;;;;;;;16.80;7.13;;;8.10;62.00;;;;;;7782967;22;20043;-75
2023/12/26 02:31:05;;;;;;;12.60;6.13;;;8.10;62.00;;;;;;7782826;22;20349;-74
2023/12/26 02:34:06;;;;;;;14.63;6.03;;;8.00;62.20;;;;;;7757466;22;20452;-74
2023/12/26 02:37:07;;;;;;;12.60;5.65;;;7.90;62.30;;;;;;7757881;22;20011;-74
2023/12/26 02:40:09;;;;;;;10.23;5.35;;;7.90;62.40;;;;;;7782113;22;20019;-74
2023/12/26 02:43:10;;;;;;;16.05;5.85;;;7.90;62.50;;;;;;7810050;22;20309;-74
2023/12/26 02:46:12;;;;;;;15.00;6.00;;;7.90;62.50;;;;;;7782773;22;19999;-74
2023/12/26 02:49:14;;;;;;;9.57;5.28;;;7.80;62.50;;;;;;7782645;22;20029;-75
2023/12/26 02:52:15;;;;;;;16.33;6.78;;;7.80;62.70;;;;;;7783095;22;20003;-75
2023/12/26 02:55:15;;;;;;;16.92;5.35;;;7.80;62.80;;;;;;7757474;22;20080;-74
2023/12/26 02:58:17;;;;;;;14.05;6.05;;;7.70;62.80;;;;;;7782655;22;20336;-75
2023/12/26 03:01:19;;;;;;;12.15;5.88;;;7.80;62.80;;;;;;7756368;22;20499;-74
2023/12/26 03:04:20;;;;;;;11.77;4.70;;;7.70;62.70;;;;;;7757653;22;20405;-76
2023/12/26 03:07:21;;;;;;;11.50;4.97;;;7.80;62.80;;;;;;7783913;22;20014;-75
2023/12/26 03:10:22;;;;;;;8.32;4.28;;;7.70;62.70;;;;;;7783979;22;20007;-75
2023/12/26 03:13:23;;;;;;;8.73;4.47;;;7.70;62.80;;;;;;7757071;22;20010;-75
2023/12/26 03:16:24;;;;;;;13.70;4.82;;;7.70;63.00;;;;;;7784693;22;20023;-75
2023/12/26 03:19:24;;;;;;;7.15;3.55;;;7.60;63.10;;;;;;7811632;22;20031;-77
2023/12/26 03:22:25;;;;;;;27.95;5.97;;;7.60;63.30;;;;;;7756950;22;20000;-75
2023/12/26 03:25:26;;;;;;;9.05;4.95;;;7.50;63.40;;;;;;7756695;22;19995;-74
2023/12/26 03:28:27;;;;;;;14.50;6.97;;;7.40;63.50;;;;;;7757266;22;20095;-76
2023/12/26 03:31:28;;;;;;;7.93;3.40;;;7.40;63.70;;;;;;7757198;22;20467;-74
2023/12/26 03:34:29;;;;;;;9.27;4.68;;;7.40;63.80;;;;;;7757525;22;20330;-74
2023/12/26 03:37:31;;;;;;;8.27;4.47;;;7.40;63.90;;;;;;7757123;22;20185;-75
2023/12/26 03:40:32;;;;;;;8.75;4.43;;;7.40;63.80;;;;;;7756524;22;20096;-74
2023/12/26 03:43:32;;;;;;;6.55;3.88;;;7.30;63.80;;;;;;7781959;22;20007;-75
2023/12/26 03:46:34;;;;;;;5.63;4.00;;;7.30;63.80;;;;;;7782040;22;20007;-73
2023/12/26 03:49:36;;;;;;;7.93;4.32;;;7.20;63.90;;;;;;7782223;22;20023;-75
2023/12/26 03:52:39;;;;;;;6.78;4.00;;;7.20;63.90;;;;;;7782828;22;20144;-74
2023/12/26 03:55:41;;;;;;;9.75;3.92;;;7.20;64.10;;;;;;7756505;22;20115;-75
2023/12/26 03:58:42;;;;;;;10.05;4.63;;;7.20;64.10;;;;;;7755334;22;20007;-75
2023/12/26 04:01:43;;;;;;;5.25;3.45;;;7.20;64.10;;;;;;7782060;22;20389;-74
2023/12/26 04:04:44;;;;;;;14.25;5.38;;;7.20;63.90;;;;;;7782306;22;19999;-75
2023/12/26 04:07:47;;;;;;;17.10;5.72;;;7.20;63.90;;;;;;7780904;22;20018;-74
2023/12/26 04:10:48;;;;;;;14.85;5.97;;;7.20;63.90;;;;;;7809935;22;20413;-74
2023/12/26 04:13:50;;;;;;;6.95;4.20;;;7.20;63.70;;;;;;7781509;22;20003;-75
2023/12/26 04:16:52;;;;;;;10.10;4.65;;;7.20;63.90;;;;;;7810071;22;20094;-74
2023/12/26 04:19:53;;;;;;;14.07;3.65;;;7.10;63.90;;;;;;7782362;22;20341;-75
2023/12/26 04:22:54;;;;;;;8.43;4.60;;;7.10;64.20;;;;;;7756718;22;20452;-75
2023/12/26 04:25:55;;;;;;;14.05;5.20;;;7.20;64.20;;;;;;7809969;22;19999;-75
2023/12/26 04:28:57;;;;;;;8.60;5.40;;;7.20;64.20;;;;;;7756794;22;20007;-75
2023/12/26 04:31:59;;;;;;;6.57;3.78;;;7.20;64.20;;;;;;7781016;22;20003;-76
2023/12/26 04:35:00;;;;;;;9.25;4.28;;;7.20;64.20;;;;;;7756915;22;19999;-74
2023/12/26 04:38:01;;;;;;;8.77;4.80;;;7.20;64.10;;;;;;7782210;22;20023;-75
2023/12/26 04:41:02;;;;;;;14.02;4.78;;;7.20;64.10;;;;;;7755799;22;20061;-74
2023/12/26 04:44:03;;;;;;;9.73;4.90;;;7.10;64.10;;;;;;7756334;22;20045;-74
2023/12/26 04:47:04;;;;;;;15.02;6.13;;;7.10;64.20;;;;;;7781705;22;20076;-75
2023/12/26 04:50:07;;;;;;;13.77;5.40;;;7.00;64.20;;;;;;7782194;22;20006;-75
2023/12/26 04:53:10;;;;;;;15.20;5.32;;;7.00;64.30;;;;;;7757822;22;20021;-74
2023/12/26 04:56:33;;;;;;;8.63;5.05;;;6.90;64.40;;;;;;7784242;22;20290;-74
2023/12/26 04:59:37;;;;;;;10.10;6.00;;;6.90;64.50;;;;;;7751737;22;20278;-76
2023/12/26 05:02:39;;;;;;;11.25;4.60;;;6.90;64.60;;;;;;7781577;22;19999;-76
2023/12/26 05:05:42;;;;;;;12.93;4.80;;;6.90;64.70;;;;;;7809850;22;20084;-74
2023/12/26 05:08:43;;;;;;;7.25;4.03;;;6.90;64.60;;;;;;7756381;22;20286;-75
2023/12/26 05:11:44;;;;;;;8.90;5.30;;;6.90;64.70;;;;;;7757074;22;20002;-75
2023/12/26 05:14:45;;;;;;;11.98;5.18;;;7.00;64.60;;;;;;7755244;22;20089;-74
2023/12/26 05:17:46;;;;;;;9.38;4.70;;;7.00;64.50;;;;;;7755654;22;20011;-74
2023/12/26 05:20:47;;;;;;;8.40;4.35;;;7.00;64.50;;;;;;7755290;22;20030;-76
2023/12/26 05:23:48;;;;;;;5.93;4.10;;;7.00;64.50;;;;;;7757190;22;20083;-75
2023/12/26 05:26:49;;;;;;;8.65;4.25;;;7.00;64.50;;;;;;7784238;22;20003;-74
2023/12/26 05:29:50;;;;;;;11.88;5.07;;;7.10;64.50;;;;;;7784327;22;20072;-75
2023/12/26 05:32:51;;;;;;;7.43;3.90;;;7.10;64.40;;;;;;7758990;22;20149;-74
2023/12/26 05:35:55;;;;;;;9.98;4.57;;;7.20;64.40;;;;;;7758990;22;20117;-74
2023/12/26 05:38:58;;;;;;;5.85;3.45;;;7.20;64.30;;;;;;7759285;22;20428;-75
2023/12/26 05:41:59;;;;;;;9.00;4.80;;;7.30;64.20;;;;;;7758790;22;20066;-75
2023/12/26 05:45:01;;;;;;;7.68;3.85;;;7.30;64.00;;;;;;7781879;22;20429;-75
2023/12/26 05:48:02;;;;;;;10.10;3.65;;;7.30;63.80;;;;;;7783984;22;20128;-75
2023/12/26 05:51:05;;;;;;;11.00;4.78;;;7.20;63.70;;;;;;7757835;22;20303;-75
2023/12/26 05:54:07;;;;;;;6.35;4.03;;;7.10;63.80;;;;;;7784753;22;20275;-75
2023/12/26 05:57:08;;;;;;;9.23;3.35;;;7.10;63.90;;;;;;7784422;22;20390;-74
2023/12/26 06:00:12;;;;;;;5.97;3.60;;;7.10;63.90;;;;;;7758698;22;20091;-75
2023/12/26 06:03:20;;;;;;;4.78;3.03;;;7.00;63.80;;;;;;7760300;22;19995;-76
2023/12/26 06:06:22;;;;;;;9.20;3.22;;;7.00;63.90;;;;;;7784310;22;20015;-75
2023/12/26 06:09:26;;;;;;;8.70;4.47;;;7.00;64.00;;;;;;7783845;22;20015;-75
2023/12/26 06:12:28;;;;;;;7.38;3.90;;;6.90;64.10;;;;;;7758677;22;20008;-75
2023/12/26 06:15:29;;;;;;;6.35;3.25;;;6.90;64.10;;;;;;7758763;22;20140;-75
2023/12/26 06:18:32;;;;;;;6.05;3.72;;;7.00;64.10;;;;;;7782383;22;20007;-75
2023/12/26 06:21:33;;;;;;;8.52;3.67;;;6.90;64.00;;;;;;7782312;22;20424;-73
2023/12/26 06:24:34;;;;;;;7.38;3.95;;;6.90;64.10;;;;;;7757602;22;20086;-74
2023/12/26 06:27:36;;;;;;;8.48;3.70;;;6.90;64.20;;;;;;7758569;22;20366;-74
2023/12/26 06:30:37;;;;;;;11.43;3.97;;;6.90;64.30;;;;;;7758673;22;20014;-73
2023/12/26 06:33:38;;;;;;;6.22;3.55;;;6.80;64.30;;;;;;7783188;22;20149;-75
2023/12/26 06:36:39;;;;;;;6.68;3.75;;;6.90;64.30;;;;;;7783445;22;20121;-76
2023/12/26 06:39:42;;;;;;;8.50;3.05;;;6.80;64.20;;;;;;7783635;22;20052;-73
2023/12/26 06:42:44;;;;;;;5.43;3.08;;;6.80;64.30;;;;;;7783478;22;20083;-74
2023/12/26 06:45:45;;;;;;;6.72;3.95;;;6.80;64.40;;;;;;7757884;22;20014;-74
2023/12/26 06:48:47;;;;;;;8.82;3.05;;;6.80;64.40;;;;;;7783632;22;20053;-75
2023/12/26 06:51:48;;;;;;;13.45;4.85;;;6.80;64.40;;;;;;7811286;22;20000;-75
2023/12/26 06:54:52;;;;;;;7.82;3.53;;;6.80;64.30;;;;;;7784037;22;20332;-75
2023/12/26 06:57:54;;;;;;;8.38;3.38;;;6.80;64.30;;;;;;7757659;22;20025;-75
2023/12/26 07:00:55;;;;;;;5.70;2.67;;;6.80;64.40;;;;;;7783165;22;20059;-76
2023/12/26 07:03:56;;;;;;;5.88;3.40;;;6.70;64.30;;;;;;7783767;22;20072;-74
2023/12/26 07:06:57;;;;;;;8.68;4.05;;;6.70;64.50;;;;;;7783668;22;20473;-75
2023/12/26 07:09:59;;;;;;;4.47;3.00;;;6.60;64.50;;;;;;7811208;22;20346;-76
2023/12/26 07:13:00;;;;;;;5.70;3.67;;;6.60;64.60;;;;;;7758386;22;20011;-74
2023/12/26 07:16:01;;;;;;;7.88;3.17;;;6.60;64.70;;;;;;7811166;22;20012;-75
2023/12/26 07:19:02;;;;;;;13.32;4.72;;;6.50;64.70;;;;;;7783220;22;19995;-74
2023/12/26 07:22:03;;;;;;;3.95;2.42;;;6.50;64.70;;;;;;7783122;22;19991;-75
2023/12/26 07:25:04;;;;;;;10.18;3.88;;;6.50;64.80;;;;;;7782894;22;19999;-76
2023/12/26 07:28:06;;;;;;;5.20;2.85;;;6.50;64.80;;;;;;7783263;22;20422;-76
2023/12/26 07:31:08;;;;;;;5.85;3.72;;;6.50;65.00;;;;;;7810603;22;20122;-75
2023/12/26 07:34:10;;;;;;;6.30;4.35;;;6.50;65.00;;;;;;7809449;22;20103;-74
2023/12/26 07:37:12;;;;;;;7.07;4.28;;;6.50;64.90;;;;;;7755041;22;20023;-73
2023/12/26 07:40:13;;;;;;;7.57;3.83;;;6.50;64.80;;;;;;7754822;22;20417;-74
2023/12/26 07:43:14;;;;;;;10.93;3.70;;;6.60;65.00;;;;;;7754538;22;20057;-73
2023/12/26 07:46:16;;;;;;;9.77;3.92;;;6.60;64.90;;;;;;7781126;22;20007;-73
2023/12/26 07:49:18;;;;;;;12.05;4.40;;;6.60;65.00;;;;;;7781675;22;20374;-74
2023/12/26 07:52:19;;;;;;;6.72;3.67;;;6.60;64.90;;;;;;7756475;22;20447;-75
2023/12/26 07:55:20;;;;;;;8.05;3.50;;;6.60;64.80;;;;;;7780807;22;20403;-76
2023/12/26 07:58:21;;;;;;;8.45;3.88;;;6.60;64.70;;;;;;7781721;22;20017;-73
2023/12/26 08:01:25;;;;;;;8.32;3.47;;;6.60;64.60;;;;;;7810574;22;20038;-73
2023/12/26 08:04:27;;;;;;;8.27;3.80;;;6.60;64.60;;;;;;7755716;22;19999;-75
2023/12/26 08:07:29;;;;;;;7.93;4.15;;;6.50;64.60;;;;;;7782462;22;20011;-74
2023/12/26 08:10:30;;;;;;;6.28;3.33;;;6.50;65.60;;;;;;7755842;22;20459;-74
2023/12/26 08:13:32;;;;;;;4.88;3.35;;;6.50;65.00;;;;;;7810031;22;20027;-73
2023/12/26 08:16:33;;;;;;;7.18;2.75;;;6.50;65.00;;;;;;7782415;22;20094;-75
2023/12/26 08:19:35;;;;;;;9.73;4.38;;;6.60;64.90;;;;;;7807813;22;20413;-75
2023/12/26 08:22:36;;;;;;;9.65;3.67;;;6.60;64.80;;;;;;7729083;22;20627;-74
2023/12/26 08:25:37;;;;;;;7.20;3.22;;;6.60;65.00;;;;;;7755453;22;20055;-74
2023/12/26 08:28:38;;;;;;;6.38;2.92;;;6.60;65.10;;;;;;7756460;22;20070;-74
2023/12/26 08:31:40;;;;;;;7.93;3.90;;;6.70;65.00;;;;;;7755804;22;20366;-74
2023/12/26 08:34:44;;;;;;;4.75;3.13;;;6.70;65.00;;;;;;7781971;22;20286;-73
2023/12/26 08:37:45;;;;;;;9.10;3.67;;;6.80;65.10;;;;;;7757040;22;20078;-73
2023/12/26 08:40:47;;;;;;;7.30;3.42;;;6.90;65.20;;;;;;7782795;22;20075;-74
2023/12/26 08:43:48;;;;;;;9.23;3.45;;;7.00;65.00;;;;;;7782264;22;20090;-75
2023/12/26 08:46:51;;;;;;;11.43;3.67;;;7.10;64.90;;;;;;7757031;22;20003;-74
2023/12/26 08:49:52;;;;;;;7.22;3.60;;;7.20;64.80;;;;;;7756672;22;20415;-75
2023/12/26 08:52:53;;;;;;;6.03;2.97;;;7.30;64.60;;;;;;7782451;22;20072;-75
2023/12/26 08:55:54;;;;;;;10.23;3.97;;;7.40;64.30;;;;;;7781659;22;20013;-74
2023/12/26 08:58:55;;;;;;;10.63;3.65;;;7.50;64.00;;;;;;7782946;22;20007;-76
2023/12/26 09:02:20;;;;;;;7.28;3.60;;;7.60;63.90;;;;;;7789436;22;20473;-75
2023/12/26 09:05:46;;;;;;;8.27;4.00;;;7.70;63.60;;;;;;7788289;22;20374;-73
2023/12/26 09:09:17;;;;;;;12.10;3.55;;;7.80;63.30;;;;;;7811338;22;20007;-76
2023/12/26 09:12:42;;;;;;;3.95;2.65;;;7.80;63.00;;;;;;7789923;22;20090;-75
2023/12/26 09:16:08;;;;;;;8.30;4.05;;;7.90;62.90;;;;;;7789989;22;20090;-75
2023/12/26 09:19:34;;;;;;;9.60;3.85;;;8.00;62.90;;;;;;7790202;22;20007;-75
2023/12/26 09:23:00;;;;;;;5.40;3.50;;;8.00;62.80;;;;;;7771436;22;20011;-76
2023/12/26 09:26:27;;;;;;;4.93;3.28;;;8.10;62.60;;;;;;7791748;22;20512;-76
2023/12/26 09:29:53;;;;;;;7.25;3.35;;;8.10;62.50;;;;;;7790872;22;20382;-75
2023/12/26 09:33:19;;;;;;;8.32;4.32;;;8.10;62.50;;;;;;7812624;22;20011;-74
2023/12/26 09:36:46;;;;;;;8.10;3.97;;;8.20;62.40;;;;;;7790728;22;20019;-76
2023/12/26 09:40:13;;;;;;;8.77;4.53;;;8.20;62.20;;;;;;7790800;22;20335;-75
2023/12/26 09:43:40;;;;;;;10.52;4.90;;;8.30;62.10;;;;;;7791211;22;20014;-75
2023/12/26 09:47:07;;;;;;;7.95;3.80;;;8.30;62.80;;;;;;7812060;22;20011;-74
2023/12/26 09:50:34;;;;;;;9.27;4.45;;;8.40;62.10;;;;;;7812442;22;20012;-75
2023/12/26 09:54:03;;;;;;;8.57;4.55;;;8.40;61.90;;;;;;7813190;22;20015;-76
2023/12/26 09:57:29;;;;;;;16.55;4.93;;;8.60;61.90;;;;;;7810446;22;20075;-75
2023/12/26 10:00:57;;;;;;;9.90;4.95;;;8.70;62.40;;;;;;7790656;22;20015;-74
2023/12/26 10:04:22;;;;;;;6.30;4.00;;;9.20;61.70;;;;;;7812795;22;20007;-76
2023/12/26 10:07:48;;;;;;;6.63;3.20;;;9.70;60.70;;;;;;7791140;22;20089;-74
2023/12/26 10:11:15;;;;;;;8.13;3.88;;;10.10;59.80;;;;;;7791263;22;20015;-76
2023/12/26 10:14:42;;;;;;;11.93;5.22;;;10.30;59.40;;;;;;7813350;22;20007;-73
2023/12/26 10:18:10;;;;;;;13.45;5.30;;;10.70;59.10;;;;;;7791455;22;20023;-76
2023/12/26 10:21:38;;;;;;;12.85;4.38;;;11.00;58.30;;;;;;7790261;22;20435;-76
2023/12/26 10:25:06;;;;;;;14.35;4.15;;;11.00;57.90;;;;;;7792263;22;20007;-76
2023/12/26 10:28:39;;;;;;;12.13;5.35;;;11.40;57.00;;;;;;7791718;22;20031;-76
2023/12/26 10:32:05;;;;;;;12.10;5.88;;;11.60;56.20;;;;;;7813091;22;20015;-76
2023/12/26 10:35:33;;;;;;;10.02;4.57;;;11.90;56.10;;;;;;7790912;22;20019;-75
2023/12/26 10:38:59;;;;;;;12.50;6.22;;;12.20;55.60;;;;;;7812644;22;20023;-73
2023/12/26 10:42:25;;;;;;;11.73;5.53;;;12.60;54.90;;;;;;7790880;22;20035;-74
2023/12/26 10:45:53;;;;;;;11.93;5.78;;;12.90;53.80;;;;;;7789024;22;20007;-74
2023/12/26 10:49:26;;;;;;;14.70;7.03;;;13.10;53.20;;;;;;7788947;22;20011;-75
2023/12/26 10:53:09;;;;;;;13.45;6.05;;;13.20;52.70;;;;;;7788847;22;20044;-73
2023/12/26 10:56:36;;;;;;;11.75;6.03;;;13.40;52.10;;;;;;7789632;22;20027;-74
2023/12/26 13:54:21;;;;;;;6.57;3.25;;;12.20;52.70;;;;;;7814739;22;20035;-75
2023/12/26 13:58:24;;;;;;;9.43;4.50;;;12.20;52.30;;;;;;7792578;22;20019;-75
2023/12/26 14:02:27;;;;;;;6.80;4.38;;;12.30;51.90;;;;;;7792720;22;20011;-75
2023/12/26 14:06:30;;;;;;;4.82;3.35;;;12.30;51.80;;;;;;7791304;22;20015;-74
2023/12/26 14:10:34;;;;;;;8.35;3.65;;;12.40;51.60;;;;;;7812984;22;20023;-83
2023/12/26 14:14:38;;;;;;;7.18;3.75;;;12.30;51.60;;;;;;7795047;22;20354;-76
2023/12/26 14:18:42;;;;;;;11.77;3.88;;;12.40;51.20;;;;;;7800766;22;20377;-77
2023/12/26 14:22:46;;;;;;;8.05;3.63;;;12.40;51.10;;;;;;7790989;22;20359;-74
2023/12/26 14:26:52;;;;;;;8.32;3.67;;;12.40;50.90;;;;;;7794027;22;20380;-79
2023/12/26 14:30:55;;;;;;;10.85;4.07;;;12.50;50.70;;;;;;7814961;22;20600;-81
2023/12/26 14:34:59;;;;;;;8.43;3.28;;;12.50;50.60;;;;;;7793611;22;20457;-79
2023/12/26 14:39:03;;;;;;;7.72;3.50;;;12.50;50.50;;;;;;7817037;22;20015;-84
2023/12/26 14:43:07;;;;;;;7.65;3.38;;;12.40;50.50;;;;;;7790604;22;20693;-81
2023/12/26 14:47:10;;;;;;;10.30;4.50;;;12.40;50.50;;;;;;7790505;22;20031;-75
2023/12/26 14:51:14;;;;;;;9.82;4.88;;;12.40;50.60;;;;;;7814047;22;20106;-77
2023/12/26 14:55:18;;;;;;;15.23;6.20;;;12.40;50.70;;;;;;7813869;22;20007;-77
2023/12/26 14:59:22;;;;;;;11.60;4.55;;;12.40;50.90;;;;;;7813104;22;20015;-78
2023/12/26 15:02:59;;;;;;;17.55;4.03;;;12.40;50.90;;;;;;7789872;22;20003;-78
2023/12/26 15:06:24;;;;;;;10.57;3.78;;;12.50;51.00;;;;;;7811870;22;20053;-75
2023/12/26 15:09:50;;;;;;;15.00;4.28;;;12.50;51.00;;;;;;7789007;22;20082;-75
2023/12/26 15:13:19;;;;;;;7.70;4.13;;;12.50;50.90;;;;;;7814834;22;20046;-74
2023/12/26 15:16:45;;;;;;;8.27;3.72;;;12.50;50.90;;;;;;7816038;22;20052;-76
2023/12/26 15:20:12;;;;;;;13.13;4.10;;;12.50;51.00;;;;;;7812194;22;20338;-76
2023/12/26 15:23:39;;;;;;;15.13;4.55;;;12.50;51.00;;;;;;7810572;22;20007;-76
2023/12/26 15:27:05;;;;;;;6.70;3.60;;;12.50;51.00;;;;;;7789068;22;20368;-77
2023/12/26 15:30:31;;;;;;;12.27;4.22;;;12.50;50.90;;;;;;7810765;22;20082;-74
2023/12/26 15:33:59;;;;;;;7.80;3.38;;;12.50;50.80;;;;;;7789522;22;20023;-74
2023/12/26 15:37:25;;;;;;;11.32;4.00;;;12.50;50.80;;;;;;7769473;22;20023;-75
2023/12/26 15:40:53;;;;;;;8.02;3.65;;;12.40;50.90;;;;;;7789095;22;20007;-76
2023/12/26 15:44:19;;;;;;;13.48;4.65;;;12.40;50.80;;;;;;7789553;22;20020;-76
2023/12/26 15:47:49;;;;;;;13.65;4.85;;;12.40;50.90;;;;;;7811190;22;20011;-76
2023/12/26 15:51:18;;;;;;;11.27;4.22;;;12.50;51.00;;;;;;7769565;22;20019;-76
2023/12/26 15:54:47;;;;;;;8.80;4.05;;;12.30;51.10;;;;;;7789294;22;20007;-76
2023/12/26 15:58:14;;;;;;;;;;;12.30;51.20;;;;;;7811037;22;20011;-74
2023/12/26 16:01:47;;;;;;;12.48;5.32;;;12.20;51.30;;;;;;7788305;22;19902;-76
2023/12/26 16:05:13;;;;;;;11.77;4.82;;;12.20;51.50;;;;;;7811109;22;20011;-74
2023/12/26 16:08:39;;;;;;;18.23;6.60;;;12.10;51.60;;;;;;7810364;22;20059;-75
2023/12/26 16:12:07;;;;;;;24.30;7.05;;;12.10;51.80;;;;;;7810860;22;20007;-75
2023/12/26 16:15:33;;;;;;;11.45;6.00;;;12.00;52.00;;;;;;7812187;22;20015;-75
2023/12/26 16:18:59;;;;;;;12.48;5.30;;;12.00;52.20;;;;;;7810614;22;20101;-76
2023/12/26 16:22:25;;;;;;;10.73;4.18;;;11.90;52.30;;;;;;7789166;22;20007;-76
2023/12/26 16:25:51;;;;;;;20.42;5.40;;;11.90;52.50;;;;;;7788215;22;20035;-76
2023/12/26 16:29:18;;;;;;;18.65;6.47;;;11.90;52.60;;;;;;7810740;22;20436;-76
2023/12/26 16:32:43;;;;;;;10.77;5.05;;;11.80;52.70;;;;;;7811013;22;20082;-75
2023/12/26 16:36:10;;;;;;;15.13;5.93;;;11.70;52.80;;;;;;7788508;22;20003;-75
2023/12/26 16:39:35;;;;;;;22.02;7.47;;;11.70;52.90;;;;;;7788296;22;20007;-77
2023/12/26 16:43:01;;;;;;;18.55;8.02;;;11.70;53.10;;;;;;7768106;22;20090;-76
2023/12/26 16:46:31;;;;;;;10.43;5.20;;;11.60;53.20;;;;;;7788446;22;20332;-78
2023/12/26 16:49:58;;;;;;;14.20;5.97;;;11.50;53.30;;;;;;7788769;22;20461;-76
2023/12/26 16:53:25;;;;;;;16.55;5.50;;;11.50;53.30;;;;;;7810206;22;20071;-75
2023/12/26 16:56:52;;;;;;;11.75;5.60;;;11.50;53.40;;;;;;7788501;22;20073;-75
2023/12/26 17:00:18;;;;;;;18.90;6.68;;;11.50;53.60;;;;;;7810215;22;20007;-76
2023/12/26 17:03:44;;;;;;;19.52;6.93;;;11.40;53.70;;;;;;7811150;22;20007;-76
2023/12/26 17:07:11;;;;;;;17.58;5.53;;;11.40;53.90;;;;;;7768523;22;20936;-75
2023/12/26 17:10:37;;;;;;;14.35;5.43;;;11.30;54.10;;;;;;7809739;22;20015;-75
2023/12/26 17:14:04;;;;;;;10.85;4.55;;;11.30;54.30;;;;;;7811341;22;20007;-75
2023/12/26 17:17:31;;;;;;;13.18;5.80;;;11.20;54.50;;;;;;7810863;22;20019;-75
2023/12/26 17:20:58;;;;;;;9.68;4.35;;;11.20;54.70;;;;;;7790378;22;20089;-76
2023/12/26 17:24:24;;;;;;;10.02;4.80;;;11.20;54.90;;;;;;7790630;22;20015;-76
2023/12/26 17:27:54;;;;;;;18.85;4.65;;;11.10;54.90;;;;;;7790763;22;20086;-76
2023/12/26 17:31:22;;;;;;;9.50;4.68;;;11.00;55.10;;;;;;7812502;22;20087;-74
2023/12/26 17:34:48;;;;;;;15.75;6.20;;;10.90;55.20;;;;;;7812561;22;20019;-74
2023/12/26 17:38:15;;;;;;;36.17;7.57;;;10.90;55.40;;;;;;7790581;22;20015;-76
2023/12/26 17:41:42;;;;;;;12.00;5.93;;;10.80;55.50;;;;;;7790786;22;20015;-76
2023/12/26 17:45:10;;;;;;;13.93;5.85;;;10.70;55.70;;;;;;7790345;22;20436;-77
2023/12/26 17:48:35;;;;;;;11.10;4.82;;;10.70;55.70;;;;;;7770057;22;20488;-75
2023/12/26 17:52:02;;;;;;;14.70;6.38;;;10.60;55.70;;;;;;7812521;22;20003;-73
2023/12/26 17:55:27;;;;;;;14.60;5.70;;;10.50;55.70;;;;;;7790246;22;20102;-75
2023/12/26 17:58:53;;;;;;;13.20;4.97;;;10.40;55.70;;;;;;7812209;22;20019;-76
2023/12/26 18:02:19;;;;;;;16.52;5.97;;;10.40;55.90;;;;;;7811094;22;19999;-75
2023/12/26 18:05:45;;;;;;;19.52;6.43;;;10.30;55.90;;;;;;7811431;22;20520;-75
2023/12/26 18:09:12;;;;;;;18.35;7.50;;;10.30;55.90;;;;;;7810874;22;20011;-76
2023/12/26 18:12:39;;;;;;;10.80;4.93;;;10.30;55.80;;;;;;7811371;22;20815;-74
2023/12/26 18:16:04;;;;;;;21.75;6.68;;;10.30;55.80;;;;;;7810789;22;20007;-75
